createdAt,value
2018-08-30T00:02:26.172Z,18.50
2018-08-30T00:05:06.191Z,20.23
2018-08-30T00:07:33.333Z,16.70
2018-08-30T00:10:03.872Z,21.93
2018-08-30T00:12:37.707Z,15.40
2018-08-30T00:15:06.475Z,18.43
2018-08-30T00:17:34.887Z,16.20
2018-08-30T00:20:06.488Z,19.20
2018-08-30T00:22:34.790Z,18.17
2018-08-30T00:25:03.288Z,20.17
2018-08-30T00:27:31.733Z,16.17
2018-08-30T00:30:04.951Z,21.03
2018-08-30T00:32:36.366Z,23.53
2018-08-30T00:35:04.847Z,20.50
2018-08-30T00:37:33.173Z,23.80
2018-08-30T00:40:02.944Z,21.17
2018-08-30T00:42:34.489Z,21.57
2018-08-30T00:45:02.960Z,23.17
2018-08-30T00:47:31.443Z,24.17
2018-08-30T00:50:02.005Z,22.17
2018-08-30T00:52:28.677Z,25.03
2018-08-30T00:54:57.082Z,22.47
2018-08-30T00:57:28.065Z,22.63
2018-08-30T00:59:56.431Z,23.80
2018-08-30T01:02:29.867Z,22.03
2018-08-30T01:04:57.143Z,24.40
2018-08-30T01:07:28.519Z,23.73
2018-08-30T01:10:01.540Z,22.70
2018-08-30T01:12:32.040Z,23.93
2018-08-30T01:15:00.450Z,23.87
2018-08-30T01:17:28.954Z,27.87
2018-08-30T01:19:57.313Z,21.03
2018-08-30T01:22:28.336Z,23.07
2018-08-30T01:24:56.722Z,22.23
2018-08-30T01:27:25.000Z,22.10
2018-08-30T01:29:56.464Z,22.03
2018-08-30T01:32:24.846Z,26.03
2018-08-30T01:34:55.181Z,20.87
2018-08-30T01:37:25.043Z,23.87
2018-08-30T01:39:53.511Z,23.27
2018-08-30T01:42:21.923Z,21.80
2018-08-30T01:44:57.327Z,23.10
2018-08-30T01:47:25.875Z,20.57
2018-08-30T01:50:02.972Z,20.47
2018-08-30T01:52:53.490Z,24.07
2018-08-30T01:55:29.167Z,24.33
2018-08-30T01:58:00.325Z,22.10
2018-08-30T02:00:43.488Z,20.83
2018-08-30T02:03:12.920Z,19.60
2018-08-30T02:05:44.733Z,23.83
2018-08-30T02:08:14.065Z,20.70
2018-08-30T02:10:51.442Z,20.03
2018-08-30T02:13:42.066Z,21.53
2018-08-30T02:16:19.047Z,20.57
2018-08-30T02:18:52.677Z,19.63
2018-08-30T02:21:21.340Z,17.87
2018-08-30T02:23:52.917Z,19.77
2018-08-30T02:26:24.494Z,20.90
2018-08-30T02:28:55.664Z,19.83
2018-08-30T02:31:24.198Z,19.90
2018-08-30T02:33:52.557Z,17.43
2018-08-30T02:36:23.977Z,20.93
2018-08-30T02:38:52.241Z,18.40
2018-08-30T02:41:20.505Z,20.27
2018-08-30T02:43:51.554Z,20.40
2018-08-30T02:46:20.179Z,21.50
2018-08-30T02:48:48.706Z,19.43
2018-08-30T02:51:20.683Z,27.03
2018-08-30T02:53:53.176Z,23.80
2018-08-30T02:56:24.800Z,20.47
2018-08-30T02:58:53.213Z,22.03
2018-08-30T03:01:22.314Z,22.27
2018-08-30T03:03:55.435Z,22.90
2018-08-30T03:06:26.257Z,22.13
2018-08-30T03:08:56.838Z,25.17
2018-08-30T03:11:29.452Z,21.97
2018-08-30T03:13:55.432Z,23.10
2018-08-30T03:16:23.946Z,20.97
2018-08-30T03:18:52.544Z,25.07
2018-08-30T03:21:21.076Z,22.43
2018-08-30T03:23:49.421Z,20.57
2018-08-30T03:26:22.902Z,24.53
2018-08-30T03:28:51.592Z,22.57
2018-08-30T03:31:25.982Z,23.33
2018-08-30T03:33:57.470Z,20.13
2018-08-30T03:36:32.298Z,24.07
2018-08-30T03:39:00.812Z,23.47
2018-08-30T03:41:31.991Z,23.93
2018-08-30T03:44:00.785Z,20.37
2018-08-30T03:46:34.318Z,22.63
2018-08-30T03:49:05.620Z,22.93
2018-08-30T03:51:35.371Z,21.60
2018-08-30T03:54:02.555Z,20.93
2018-08-30T03:56:33.628Z,25.73
2018-08-30T03:59:08.754Z,23.50
2018-08-30T04:01:42.304Z,20.80
2018-08-30T04:04:10.930Z,22.97
2018-08-30T04:06:46.781Z,20.70
2018-08-30T04:09:17.647Z,21.80
2018-08-30T04:11:50.578Z,27.40
2018-08-30T04:14:19.008Z,25.00
2018-08-30T04:16:47.617Z,23.13
2018-08-30T04:19:20.948Z,20.13
2018-08-30T04:21:51.942Z,26.23
2018-08-30T04:24:23.479Z,24.37
2018-08-30T04:26:58.833Z,22.87
2018-08-30T04:29:25.015Z,23.40
2018-08-30T04:31:53.433Z,21.33
2018-08-30T04:34:21.986Z,24.20
2018-08-30T04:36:51.761Z,24.93
2018-08-30T04:39:21.257Z,23.10
2018-08-30T04:41:55.829Z,23.40
2018-08-30T04:44:24.948Z,23.50
2018-08-30T04:46:53.062Z,23.97
2018-08-30T04:49:21.292Z,22.43
2018-08-30T04:51:49.604Z,24.50
2018-08-30T04:55:09.920Z,21.63
2018-08-30T04:58:53.011Z,21.63
2018-08-30T05:05:19.445Z,23.17
2018-08-30T05:08:28.369Z,20.03
2018-08-30T05:11:18.233Z,21.60
2018-08-30T05:14:09.070Z,20.43
2018-08-30T06:03:03.159Z,18.90
2018-08-30T06:05:31.642Z,17.63
2018-08-30T06:08:00.320Z,23.77
2018-08-30T06:10:29.097Z,18.63
2018-08-30T06:12:57.640Z,17.57
2018-08-30T06:15:26.236Z,18.00
2018-08-30T06:17:54.772Z,17.80
2018-08-30T06:20:23.320Z,18.00
2018-08-30T06:22:51.890Z,16.00
2018-08-30T06:25:20.390Z,18.77
2018-08-30T06:27:48.960Z,17.47
2018-08-30T06:30:18.326Z,17.93
2018-08-30T06:32:45.835Z,17.10
2018-08-30T06:35:14.108Z,16.30
2018-08-30T06:37:42.400Z,18.07
2018-08-30T06:40:10.718Z,17.30
2018-08-30T06:42:39.004Z,18.00
2018-08-30T06:45:07.398Z,18.30
2018-08-30T06:47:35.660Z,17.93
2018-08-30T06:50:03.880Z,18.83
2018-08-30T06:52:32.182Z,19.50
2018-08-30T06:55:00.590Z,17.73
2018-08-30T06:57:28.840Z,19.10
2018-08-30T06:59:57.146Z,18.10
2018-08-30T07:02:25.404Z,19.33
2018-08-30T07:04:54.526Z,17.80
2018-08-30T07:07:22.812Z,17.80
2018-08-30T07:09:51.087Z,17.87
2018-08-30T07:12:19.484Z,18.77
2018-08-30T07:14:47.812Z,16.97
2018-08-30T07:17:16.022Z,18.27
2018-08-30T07:19:44.620Z,17.47
2018-08-30T07:22:12.916Z,17.93
2018-08-30T07:24:41.208Z,18.07
2018-08-30T07:27:09.492Z,18.10
2018-08-30T07:29:37.748Z,17.60
2018-08-30T07:32:06.639Z,17.00
2018-08-30T07:34:35.122Z,19.23
2018-08-30T07:37:03.388Z,16.97
2018-08-30T07:39:31.624Z,18.87
2018-08-30T07:42:00.071Z,16.17
2018-08-30T07:44:28.413Z,18.77
2018-08-30T07:46:56.609Z,20.03
2018-08-30T07:49:24.921Z,17.33
2018-08-30T07:51:53.316Z,18.87
2018-08-30T07:54:21.641Z,18.53
2018-08-30T07:56:50.104Z,17.60
2018-08-30T07:59:18.488Z,19.47
2018-08-30T08:01:46.956Z,20.40
2018-08-30T08:04:15.370Z,20.47
2018-08-30T08:06:43.856Z,23.53
2018-08-30T08:09:12.123Z,20.60
2018-08-30T08:11:40.401Z,21.07
2018-08-30T08:14:08.968Z,19.03
2018-08-30T08:16:37.294Z,20.33
2018-08-30T08:19:05.554Z,30.43
2018-08-30T08:21:33.848Z,22.30
2018-08-30T08:24:02.119Z,22.00
2018-08-30T08:26:30.375Z,19.10
2018-08-30T08:28:58.684Z,25.20
2018-08-30T08:31:26.948Z,23.60
2018-08-30T08:33:55.372Z,22.90
2018-08-30T08:36:23.601Z,24.40
2018-08-30T08:38:51.891Z,23.93
2018-08-30T08:41:20.195Z,24.27
2018-08-30T08:43:48.479Z,21.87
2018-08-30T08:46:16.805Z,22.13
2018-08-30T08:48:45.136Z,21.27
2018-08-30T08:51:13.415Z,22.37
2018-08-30T08:53:41.687Z,23.53
2018-08-30T08:56:09.932Z,25.27
2018-08-30T08:58:38.239Z,23.73
2018-08-30T09:01:06.806Z,22.57
2018-08-30T09:03:35.188Z,21.10
2018-08-30T09:06:03.682Z,24.53
2018-08-30T09:08:32.028Z,20.37
2018-08-30T09:11:00.170Z,21.30
2018-08-30T09:13:28.504Z,20.00
2018-08-30T09:15:56.799Z,18.53
2018-08-30T09:18:25.117Z,22.07
2018-08-30T09:20:53.473Z,25.33
2018-08-30T09:23:21.855Z,23.20
2018-08-30T09:25:50.106Z,22.17
2018-08-30T09:28:18.485Z,22.40
2018-08-30T09:30:46.924Z,23.60
2018-08-30T09:33:15.246Z,24.50
2018-08-30T09:35:43.565Z,20.80
2018-08-30T09:38:11.893Z,20.90
2018-08-30T09:40:40.272Z,24.53
2018-08-30T09:43:08.487Z,24.47
2018-08-30T09:45:36.949Z,26.10
2018-08-30T09:48:05.463Z,21.47
2018-08-30T09:50:33.715Z,19.53
2018-08-30T09:53:01.934Z,21.00
2018-08-30T09:55:30.173Z,23.33
2018-08-30T09:57:58.625Z,19.53
2018-08-30T10:00:44.651Z,20.77
2018-08-30T10:03:12.934Z,22.70
2018-08-30T10:05:41.216Z,25.20
2018-08-30T10:08:09.625Z,22.20
2018-08-30T10:10:37.843Z,19.77
2018-08-30T10:13:06.223Z,20.57
2018-08-30T10:15:34.420Z,20.13
2018-08-30T10:18:02.876Z,18.73
2018-08-30T10:20:31.208Z,18.60
2018-08-30T10:22:59.660Z,17.87
2018-08-30T10:25:27.986Z,18.30
2018-08-30T10:27:56.354Z,19.17
2018-08-30T10:30:24.607Z,20.20
2018-08-30T10:32:52.880Z,21.93
2018-08-30T10:35:21.167Z,17.80
2018-08-30T10:37:49.509Z,19.23
2018-08-30T10:40:18.040Z,18.30
2018-08-30T10:42:46.559Z,17.47
2018-08-30T10:45:14.718Z,18.67
2018-08-30T10:47:42.949Z,20.07
2018-08-30T10:50:11.287Z,17.00
2018-08-30T10:52:39.617Z,18.90
2018-08-30T10:55:07.949Z,24.67
2018-08-30T10:57:36.207Z,19.70
2018-08-30T11:00:04.641Z,20.23
2018-08-30T11:02:32.944Z,22.27
2018-08-30T11:05:01.196Z,19.20
2018-08-30T11:07:29.636Z,19.27
2018-08-30T11:09:57.966Z,21.23
2018-08-30T11:12:26.395Z,18.73
2018-08-30T11:14:54.535Z,20.07
2018-08-30T11:17:22.785Z,18.63
2018-08-30T11:19:51.114Z,17.67
2018-08-30T11:22:19.604Z,21.63
2018-08-30T11:24:48.074Z,19.53
2018-08-30T11:27:16.404Z,21.20
2018-08-30T11:29:44.683Z,18.67
2018-08-30T11:32:13.030Z,17.77
2018-08-30T11:34:41.389Z,15.97
2018-08-30T11:37:09.685Z,13.37
2018-08-30T11:39:37.961Z,13.57
2018-08-30T11:42:06.304Z,12.30
2018-08-30T11:44:34.566Z,13.33
2018-08-30T11:47:02.889Z,16.07
2018-08-30T11:49:31.205Z,12.40
2018-08-30T11:51:59.452Z,11.03
2018-08-30T11:54:27.769Z,10.90
2018-08-30T11:56:56.128Z,10.77
2018-08-30T11:59:24.363Z,10.60
2018-08-30T12:01:52.691Z,10.37
2018-08-30T12:04:20.949Z,9.30
2018-08-30T12:06:49.368Z,12.03
2018-08-30T12:09:17.573Z,12.17
2018-08-30T12:11:45.946Z,11.70
2018-08-30T12:14:14.153Z,10.60
2018-08-30T12:16:42.509Z,11.83
2018-08-30T12:19:10.965Z,11.00
2018-08-30T12:21:39.180Z,13.83
2018-08-30T12:24:13.372Z,11.27
2018-08-30T12:26:41.789Z,12.10
2018-08-30T12:29:15.364Z,10.90
2018-08-30T12:31:43.987Z,12.10
2018-08-30T12:34:12.277Z,13.80
2018-08-30T12:36:43.421Z,9.77
2018-08-30T12:39:13.564Z,13.20
2018-08-30T12:41:42.000Z,11.60
2018-08-30T12:44:10.581Z,10.50
2018-08-30T12:46:39.030Z,9.77
2018-08-30T12:49:07.344Z,10.97
2018-08-30T12:51:36.069Z,10.00
2018-08-30T12:54:04.235Z,11.90
2018-08-30T12:56:32.760Z,11.77
2018-08-30T12:59:17.361Z,9.43
2018-08-30T13:01:46.447Z,10.47
2018-08-30T13:04:15.023Z,11.00
2018-08-30T13:07:01.856Z,10.07
2018-08-30T13:09:30.144Z,7.60
2018-08-30T13:11:59.707Z,6.53
2018-08-30T13:14:28.420Z,6.90
2018-08-30T13:16:56.950Z,8.97
2018-08-30T13:19:25.603Z,8.57
2018-08-30T13:21:53.741Z,8.50
2018-08-30T13:24:22.357Z,9.63
2018-08-30T13:26:50.691Z,8.17
2018-08-30T13:29:19.225Z,9.47
2018-08-30T13:31:47.645Z,9.63
2018-08-30T13:34:16.510Z,10.13
2018-08-30T13:36:44.828Z,10.23
2018-08-30T13:39:13.783Z,12.10
2018-08-30T13:41:42.705Z,10.67
2018-08-30T13:44:11.780Z,12.27
2018-08-30T13:46:41.083Z,12.07
2018-08-30T13:49:10.109Z,10.63
2018-08-30T13:51:38.272Z,13.87
2018-08-30T13:54:06.599Z,14.20
2018-08-30T13:56:34.926Z,17.33
2018-08-30T13:59:03.363Z,13.43
2018-08-30T14:01:31.892Z,14.30
2018-08-30T14:04:00.173Z,13.60
2018-08-30T14:06:28.597Z,11.60
2018-08-30T14:08:57.101Z,12.30
2018-08-30T14:11:25.242Z,11.70
2018-08-30T14:13:53.606Z,14.43
2018-08-30T14:16:21.558Z,10.57
2018-08-30T14:18:50.251Z,15.53
2018-08-30T14:21:18.474Z,11.57
2018-08-30T14:23:46.826Z,10.80
2018-08-30T14:26:15.112Z,11.40
2018-08-30T14:28:43.464Z,11.60
2018-08-30T14:31:11.818Z,14.27
2018-08-30T14:33:40.131Z,13.73
2018-08-30T14:36:08.410Z,12.90
2018-08-30T14:38:36.760Z,13.50
2018-08-30T14:41:05.498Z,13.23
2018-08-30T14:43:33.585Z,12.17
2018-08-30T14:46:01.927Z,12.63
2018-08-30T14:48:30.150Z,13.83
2018-08-30T14:50:58.618Z,15.37
2018-08-30T14:53:27.079Z,13.13
2018-08-30T14:55:55.214Z,13.00
2018-08-30T14:58:23.542Z,13.63
2018-08-30T15:00:51.890Z,12.33
2018-08-30T15:03:20.126Z,14.33
2018-08-30T15:05:48.845Z,12.17
2018-08-30T15:08:17.018Z,13.60
2018-08-30T15:10:45.213Z,14.27
2018-08-30T15:13:13.801Z,15.17
2018-08-30T15:15:42.049Z,13.43
2018-08-30T15:18:10.351Z,12.40
2018-08-30T15:20:38.614Z,12.23
2018-08-30T15:23:07.490Z,9.63
2018-08-30T15:25:35.841Z,11.80
2018-08-30T15:28:04.606Z,12.47
2018-08-30T15:30:32.751Z,10.27
2018-08-30T15:33:01.000Z,13.50
2018-08-30T15:35:29.750Z,11.30
2018-08-30T15:45:08.588Z,11.27
2018-08-30T15:47:37.239Z,11.17
2018-08-30T15:50:05.977Z,11.27
2018-08-30T15:52:34.243Z,9.87
2018-08-30T15:55:02.530Z,10.63
2018-08-30T15:57:32.101Z,10.40
2018-08-30T16:00:06.392Z,13.33
2018-08-30T16:02:35.654Z,12.67
2018-08-30T16:05:13.426Z,11.13
2018-08-30T16:07:53.080Z,10.83
2018-08-30T16:10:50.794Z,12.00
2018-08-30T16:13:24.601Z,16.30
2018-08-30T16:16:02.199Z,8.73
2018-08-30T16:18:49.211Z,11.27
2018-08-30T16:24:09.566Z,13.13
2018-08-30T16:27:01.399Z,14.93
2018-08-30T16:33:38.742Z,8.70
2018-08-30T16:36:23.265Z,11.97
2018-08-30T16:38:50.339Z,13.43
2018-08-30T16:41:37.219Z,10.27
2018-08-30T16:44:10.553Z,9.60
2018-08-30T16:47:05.807Z,12.33
2018-08-30T16:49:41.790Z,11.10
2018-08-30T16:52:17.936Z,9.37
2018-08-30T16:55:01.925Z,12.50
2018-08-30T16:57:38.516Z,16.70
2018-08-30T17:00:10.000Z,11.67
2018-08-30T17:02:40.451Z,10.50
2018-08-30T17:05:15.663Z,10.80
2018-08-30T17:07:53.122Z,8.47
2018-08-30T17:10:21.990Z,16.17
2018-08-30T17:12:50.462Z,10.43
2018-08-30T17:15:19.213Z,12.70
2018-08-30T17:17:47.616Z,17.30
2018-08-30T17:20:37.248Z,14.60
2018-08-30T17:23:08.167Z,16.30
2018-08-30T17:25:36.817Z,12.53
2018-08-30T17:28:05.629Z,11.27
2018-08-30T17:30:33.957Z,7.10
2018-08-30T17:33:03.020Z,14.97
2018-08-30T17:35:31.208Z,9.50
2018-08-30T17:38:03.255Z,8.73
2018-08-30T17:40:31.473Z,12.57
2018-08-30T17:43:00.045Z,15.13
2018-08-30T17:45:31.416Z,13.40
2018-08-30T17:47:59.642Z,11.97
2018-08-30T17:50:28.173Z,12.33
2018-08-30T17:52:59.695Z,12.67
2018-08-30T17:55:28.350Z,11.67
2018-08-30T17:57:59.698Z,10.43
2018-08-30T18:00:28.307Z,14.87
2018-08-30T18:02:57.125Z,14.00
2018-08-30T18:05:25.830Z,12.53
2018-08-30T18:07:54.274Z,10.13
2018-08-30T18:10:22.718Z,10.50
2018-08-30T18:12:51.054Z,11.17
2018-08-30T18:15:20.930Z,11.10
2018-08-30T18:17:51.117Z,11.80
2018-08-30T18:20:23.724Z,7.97
2018-08-30T18:23:37.642Z,15.00
2018-08-30T18:26:12.597Z,12.20
2018-08-30T18:28:54.530Z,14.40
2018-08-30T18:31:52.347Z,15.13
2018-08-30T18:34:31.119Z,16.80
2018-08-30T18:37:11.856Z,12.93
2018-08-30T18:39:41.731Z,14.80
2018-08-30T18:42:12.929Z,17.17
2018-08-30T18:44:40.104Z,9.80
2018-08-30T18:47:08.570Z,13.17
2018-08-30T18:52:54.889Z,12.47
2018-08-30T18:55:27.436Z,10.13
2018-08-30T18:58:12.774Z,15.27
2018-08-30T19:05:20.071Z,12.67
2018-08-30T19:08:07.011Z,11.63
2018-08-30T19:10:41.897Z,8.60
2018-08-30T19:13:13.003Z,10.57
2018-08-30T19:16:06.472Z,12.87
2018-08-30T19:18:56.120Z,18.97
2018-08-30T19:21:30.274Z,13.83
2018-08-30T19:23:59.214Z,18.37
2018-08-30T19:26:32.809Z,13.23
2018-08-30T19:29:05.331Z,12.80
2018-08-30T19:31:43.247Z,8.57
2018-08-30T19:34:11.501Z,15.67
2018-08-30T19:36:39.734Z,11.83
2018-08-30T19:39:11.736Z,13.67
2018-08-30T19:41:42.895Z,9.80
2018-08-30T19:44:24.281Z,10.60
2018-08-30T19:46:52.898Z,12.30
2018-08-30T19:49:31.284Z,20.20
2018-08-30T19:51:57.936Z,16.07
2018-08-30T19:54:26.214Z,15.80
2018-08-30T19:56:54.621Z,10.53
2018-08-30T19:59:23.102Z,11.97
2018-08-30T20:01:51.520Z,8.30
2018-08-30T20:04:19.847Z,8.53
2018-08-30T20:06:48.279Z,12.17
2018-08-30T20:09:16.795Z,15.30
2018-08-30T20:11:45.076Z,9.67
2018-08-30T20:14:13.465Z,11.80
2018-08-30T20:16:41.799Z,10.53
2018-08-30T20:19:10.628Z,12.50
2018-08-30T20:21:41.794Z,9.10
2018-08-30T20:24:10.660Z,12.17
2018-08-30T20:26:38.899Z,6.43
2018-08-30T20:29:07.372Z,16.10
2018-08-30T20:31:35.757Z,11.17
2018-08-30T20:34:04.199Z,12.53
2018-08-30T20:36:35.720Z,11.67
2018-08-30T20:39:05.529Z,11.40
2018-08-30T20:41:34.047Z,11.37
2018-08-30T20:44:04.373Z,9.77
2018-08-30T20:46:32.778Z,8.90
2018-08-30T20:49:01.172Z,12.40
2018-08-30T20:51:29.718Z,7.83
2018-08-30T20:53:58.019Z,11.83
2018-08-30T20:56:26.318Z,8.47
2018-08-30T20:58:54.980Z,9.63
2018-08-30T21:01:25.510Z,8.73
2018-08-30T21:03:53.991Z,7.70
2018-08-30T21:06:22.362Z,8.50
2018-08-30T21:08:52.747Z,11.37
2018-08-30T21:11:25.591Z,10.00
2018-08-30T21:14:23.135Z,10.73
2018-08-30T21:16:54.105Z,9.27
2018-08-30T21:19:30.047Z,10.77
2018-08-30T21:22:14.746Z,7.77
2018-08-30T21:24:54.271Z,10.03
2018-08-30T21:27:43.193Z,9.23
2018-08-30T21:30:12.195Z,8.50
2018-08-30T21:33:10.410Z,8.73
2018-08-30T21:35:39.550Z,10.67
2018-08-30T21:38:23.668Z,12.20
2018-08-30T21:40:59.803Z,13.70
2018-08-30T21:43:52.443Z,11.07
2018-08-30T21:46:41.588Z,8.83
2018-08-30T21:49:52.249Z,12.23
2018-08-30T21:52:51.138Z,11.80
2018-08-30T21:55:38.475Z,12.40
2018-08-30T21:58:34.841Z,8.87
2018-08-30T22:04:23.626Z,9.23
2018-08-30T22:07:19.696Z,11.57
2018-08-30T22:10:29.087Z,12.93
2018-08-30T22:13:12.783Z,11.00
2018-08-30T22:16:13.971Z,11.93
2018-08-30T22:19:10.284Z,12.83
2018-08-30T22:22:15.729Z,10.77
2018-08-30T22:25:04.408Z,11.73
2018-08-30T22:28:17.446Z,9.83
2018-08-30T22:31:01.670Z,13.67
2018-08-30T22:34:01.498Z,8.03
2018-08-30T22:43:30.299Z,10.40
2018-08-30T22:46:11.585Z,12.97
2018-08-30T22:48:57.761Z,10.37
2018-08-30T22:51:51.414Z,12.17
2018-08-30T22:54:30.718Z,12.37
2018-08-30T22:57:27.327Z,7.97
2018-08-30T23:00:22.188Z,12.87
2018-08-30T23:03:05.350Z,7.23
2018-08-30T23:05:54.594Z,10.30
2018-08-30T23:08:59.565Z,11.40
2018-08-30T23:12:05.556Z,7.97
2018-08-30T23:14:51.296Z,11.00
2018-08-30T23:18:05.581Z,10.30
2018-08-30T23:20:52.616Z,12.37
2018-08-30T23:23:40.342Z,11.80
2018-08-30T23:26:17.628Z,8.50
2018-08-30T23:29:32.093Z,11.33
2018-08-30T23:32:19.441Z,12.00
2018-08-30T23:35:17.102Z,11.30
2018-08-30T23:37:51.547Z,10.57
2018-08-30T23:40:48.536Z,8.10
2018-08-30T23:43:23.566Z,11.90
2018-08-30T23:49:06.074Z,8.80
2018-08-30T23:52:02.157Z,12.73
2018-08-30T23:54:55.674Z,10.03
2018-08-30T23:57:44.561Z,7.87
